sensor_id;sensor_type;location;lat;lon;timestamp;pressure;altitude;pressure_sealevel;temperature;humidity
80620;BME280;69979;53.682;-2.690;2024-01-27T00:00:41;102649.68;;;4.35;61.16
80620;BME280;69979;53.682;-2.690;2024-01-27T00:03:07;102650.47;;;4.94;58.39
80620;BME280;69979;53.682;-2.690;2024-01-27T00:05:32;102649.08;;;4.21;60.81
80620;BME280;69979;53.682;-2.690;2024-01-27T00:07:58;102653.89;;;4.06;62.10
80620;BME280;69979;53.682;-2.690;2024-01-27T00:10:24;102653.57;;;4.38;61.37
80620;BME280;69979;53.682;-2.690;2024-01-27T00:12:49;102649.78;;;4.44;60.93
80620;BME280;69979;53.682;-2.690;2024-01-27T00:15:15;102649.44;;;4.16;61.11
80620;BME280;69979;53.682;-2.690;2024-01-27T00:17:41;102657.75;;;3.34;63.22
80620;BME280;69979;53.682;-2.690;2024-01-27T00:20:07;102647.09;;;4.53;60.76
80620;BME280;69979;53.682;-2.690;2024-01-27T00:22:32;102645.55;;;4.01;62.13
80620;BME280;69979;53.682;-2.690;2024-01-27T00:24:58;102642.64;;;4.20;62.27
80620;BME280;69979;53.682;-2.690;2024-01-27T00:27:24;102640.80;;;4.62;59.87
80620;BME280;69979;53.682;-2.690;2024-01-27T00:29:50;102637.63;;;4.88;59.08
80620;BME280;69979;53.682;-2.690;2024-01-27T00:32:15;102638.61;;;4.76;59.72
80620;BME280;69979;53.682;-2.690;2024-01-27T00:34:41;102636.83;;;5.50;58.68
80620;BME280;69979;53.682;-2.690;2024-01-27T00:37:07;102635.51;;;4.74;59.45
80620;BME280;69979;53.682;-2.690;2024-01-27T00:39:32;102635.25;;;4.95;60.41
80620;BME280;69979;53.682;-2.690;2024-01-27T00:41:58;102637.23;;;4.94;59.96
80620;BME280;69979;53.682;-2.690;2024-01-27T00:44:24;102636.87;;;5.19;58.55
80620;BME280;69979;53.682;-2.690;2024-01-27T00:46:50;102637.34;;;5.64;58.14
80620;BME280;69979;53.682;-2.690;2024-01-27T00:49:15;102629.70;;;6.02;56.37
80620;BME280;69979;53.682;-2.690;2024-01-27T00:51:40;102631.45;;;6.46;55.94
80620;BME280;69979;53.682;-2.690;2024-01-27T00:54:06;102630.77;;;5.99;56.81
80620;BME280;69979;53.682;-2.690;2024-01-27T00:56:32;102628.50;;;5.68;57.43
80620;BME280;69979;53.682;-2.690;2024-01-27T00:58:57;102633.27;;;6.24;57.05
80620;BME280;69979;53.682;-2.690;2024-01-27T01:01:23;102642.23;;;5.59;57.47
80620;BME280;69979;53.682;-2.690;2024-01-27T01:03:48;102641.62;;;6.03;56.48
80620;BME280;69979;53.682;-2.690;2024-01-27T01:06:14;102637.33;;;6.76;55.07
80620;BME280;69979;53.682;-2.690;2024-01-27T01:08:40;102634.50;;;6.21;55.44
80620;BME280;69979;53.682;-2.690;2024-01-27T01:11:06;102629.37;;;6.22;55.97
80620;BME280;69979;53.682;-2.690;2024-01-27T01:13:31;102623.15;;;5.98;57.39
80620;BME280;69979;53.682;-2.690;2024-01-27T01:15:57;102625.22;;;7.12;54.30
80620;BME280;69979;53.682;-2.690;2024-01-27T01:18:23;102630.79;;;7.36;53.10
80620;BME280;69979;53.682;-2.690;2024-01-27T01:20:48;102624.77;;;6.88;54.57
80620;BME280;69979;53.682;-2.690;2024-01-27T01:23:14;102626.09;;;6.72;54.56
80620;BME280;69979;53.682;-2.690;2024-01-27T01:25:39;102631.73;;;7.30;53.11
80620;BME280;69979;53.682;-2.690;2024-01-27T01:28:05;102630.77;;;7.33;52.83
80620;BME280;69979;53.682;-2.690;2024-01-27T01:30:31;102635.69;;;7.49;53.39
80620;BME280;69979;53.682;-2.690;2024-01-27T01:32:56;102639.96;;;7.11;53.64
80620;BME280;69979;53.682;-2.690;2024-01-27T01:35:23;102640.25;;;5.84;56.29
80620;BME280;69979;53.682;-2.690;2024-01-27T01:37:48;102640.50;;;6.60;56.00
80620;BME280;69979;53.682;-2.690;2024-01-27T01:40:14;102640.53;;;5.90;57.62
80620;BME280;69979;53.682;-2.690;2024-01-27T01:42:39;102641.62;;;5.83;57.95
80620;BME280;69979;53.682;-2.690;2024-01-27T01:45:05;102637.65;;;6.24;58.03
80620;BME280;69979;53.682;-2.690;2024-01-27T01:47:31;102641.01;;;6.35;57.03
80620;BME280;69979;53.682;-2.690;2024-01-27T01:49:56;102637.69;;;5.64;59.12
80620;BME280;69979;53.682;-2.690;2024-01-27T01:52:22;102634.74;;;5.73;60.33
80620;BME280;69979;53.682;-2.690;2024-01-27T01:54:48;102629.14;;;5.63;59.20
80620;BME280;69979;53.682;-2.690;2024-01-27T01:57:14;102622.46;;;5.85;59.44
80620;BME280;69979;53.682;-2.690;2024-01-27T01:59:39;102622.04;;;6.17;58.35
80620;BME280;69979;53.682;-2.690;2024-01-27T02:02:05;102621.01;;;6.04;57.87
80620;BME280;69979;53.682;-2.690;2024-01-27T02:04:40;102614.04;;;6.46;57.27
80620;BME280;69979;53.682;-2.690;2024-01-27T02:06:56;102612.66;;;6.37;57.53
80620;BME280;69979;53.682;-2.690;2024-01-27T02:09:22;102609.18;;;6.71;56.79
80620;BME280;69979;53.682;-2.690;2024-01-27T02:11:47;102605.39;;;6.54;56.38
80620;BME280;69979;53.682;-2.690;2024-01-27T02:14:13;102604.75;;;6.18;57.74
80620;BME280;69979;53.682;-2.690;2024-01-27T02:16:39;102609.06;;;6.69;56.69
80620;BME280;69979;53.682;-2.690;2024-01-27T02:19:04;102613.16;;;5.99;57.54
80620;BME280;69979;53.682;-2.690;2024-01-27T02:21:30;102613.43;;;5.48;59.59
80620;BME280;69979;53.682;-2.690;2024-01-27T02:23:56;102612.82;;;4.63;62.79
80620;BME280;69979;53.682;-2.690;2024-01-27T02:26:22;102613.95;;;5.90;60.27
80620;BME280;69979;53.682;-2.690;2024-01-27T02:28:47;102617.59;;;6.03;59.70
80620;BME280;69979;53.682;-2.690;2024-01-27T02:31:12;102613.64;;;5.64;60.11
80620;BME280;69979;53.682;-2.690;2024-01-27T02:33:38;102615.58;;;5.84;59.44
80620;BME280;69979;53.682;-2.690;2024-01-27T02:36:04;102611.75;;;5.60;59.22
80620;BME280;69979;53.682;-2.690;2024-01-27T02:38:29;102610.48;;;5.75;59.57
80620;BME280;69979;53.682;-2.690;2024-01-27T02:40:54;102616.49;;;5.93;59.38
80620;BME280;69979;53.682;-2.690;2024-01-27T02:43:20;102617.88;;;6.43;59.14
80620;BME280;69979;53.682;-2.690;2024-01-27T02:45:47;102619.07;;;5.85;58.42
80620;BME280;69979;53.682;-2.690;2024-01-27T02:48:11;102614.67;;;6.95;56.84
80620;BME280;69979;53.682;-2.690;2024-01-27T02:50:36;102608.82;;;5.76;58.77
80620;BME280;69979;53.682;-2.690;2024-01-27T02:53:02;102608.99;;;5.96;58.32
80620;BME280;69979;53.682;-2.690;2024-01-27T02:55:28;102603.03;;;6.39;56.83
80620;BME280;69979;53.682;-2.690;2024-01-27T02:57:53;102602.41;;;6.85;56.50
80620;BME280;69979;53.682;-2.690;2024-01-27T03:00:19;102601.00;;;7.18;55.98
80620;BME280;69979;53.682;-2.690;2024-01-27T03:02:44;102598.01;;;7.30;56.05
80620;BME280;69979;53.682;-2.690;2024-01-27T03:05:10;102593.91;;;6.91;57.14
80620;BME280;69979;53.682;-2.690;2024-01-27T03:07:36;102588.99;;;6.34;58.42
80620;BME280;69979;53.682;-2.690;2024-01-27T03:10:02;102587.56;;;7.14;56.92
80620;BME280;69979;53.682;-2.690;2024-01-27T03:12:27;102588.95;;;6.88;55.96
80620;BME280;69979;53.682;-2.690;2024-01-27T03:14:53;102594.77;;;5.60;60.35
80620;BME280;69979;53.682;-2.690;2024-01-27T03:17:18;102589.50;;;5.95;59.52
80620;BME280;69979;53.682;-2.690;2024-01-27T03:19:44;102586.42;;;5.64;61.00
80620;BME280;69979;53.682;-2.690;2024-01-27T03:22:10;102582.05;;;6.13;60.64
80620;BME280;69979;53.682;-2.690;2024-01-27T03:24:35;102583.89;;;6.29;59.45
80620;BME280;69979;53.682;-2.690;2024-01-27T03:27:01;102587.47;;;5.78;60.27
80620;BME280;69979;53.682;-2.690;2024-01-27T03:29:27;102596.65;;;6.24;59.18
80620;BME280;69979;53.682;-2.690;2024-01-27T03:31:52;102593.31;;;6.35;59.68
80620;BME280;69979;53.682;-2.690;2024-01-27T03:34:18;102598.92;;;6.45;58.40
80620;BME280;69979;53.682;-2.690;2024-01-27T03:36:48;102601.09;;;7.14;56.27
80620;BME280;69979;53.682;-2.690;2024-01-27T03:39:09;102598.55;;;6.20;58.82
80620;BME280;69979;53.682;-2.690;2024-01-27T03:41:35;102594.31;;;6.32;59.19
80620;BME280;69979;53.682;-2.690;2024-01-27T03:44:01;102593.24;;;5.70;61.00
80620;BME280;69979;53.682;-2.690;2024-01-27T03:46:27;102588.59;;;5.52;61.65
80620;BME280;69979;53.682;-2.690;2024-01-27T03:48:52;102591.19;;;6.05;60.24
80620;BME280;69979;53.682;-2.690;2024-01-27T03:51:18;102588.03;;;6.16;59.73
80620;BME280;69979;53.682;-2.690;2024-01-27T03:53:43;102586.07;;;6.08;59.53
80620;BME280;69979;53.682;-2.690;2024-01-27T03:56:12;102577.38;;;6.18;60.05
80620;BME280;69979;53.682;-2.690;2024-01-27T03:58:35;102574.17;;;6.43;58.98
80620;BME280;69979;53.682;-2.690;2024-01-27T04:01:01;102574.43;;;6.49;58.62
80620;BME280;69979;53.682;-2.690;2024-01-27T04:03:26;102569.88;;;6.71;57.81
80620;BME280;69979;53.682;-2.690;2024-01-27T04:05:52;102570.87;;;6.48;57.01
80620;BME280;69979;53.682;-2.690;2024-01-27T04:08:17;102569.48;;;5.51;59.50
80620;BME280;69979;53.682;-2.690;2024-01-27T04:10:43;102561.65;;;6.57;57.83
80620;BME280;69979;53.682;-2.690;2024-01-27T04:13:09;102562.37;;;6.74;56.34
80620;BME280;69979;53.682;-2.690;2024-01-27T04:15:35;102566.70;;;6.67;55.41
80620;BME280;69979;53.682;-2.690;2024-01-27T04:18:00;102569.96;;;7.22;54.28
80620;BME280;69979;53.682;-2.690;2024-01-27T04:20:26;102563.47;;;7.11;54.53
80620;BME280;69979;53.682;-2.690;2024-01-27T04:22:52;102564.86;;;7.27;54.76
80620;BME280;69979;53.682;-2.690;2024-01-27T04:25:17;102562.40;;;6.62;54.17
80620;BME280;69979;53.682;-2.690;2024-01-27T04:27:43;102558.99;;;7.13;53.63
80620;BME280;69979;53.682;-2.690;2024-01-27T04:30:11;102560.58;;;6.79;55.22
80620;BME280;69979;53.682;-2.690;2024-01-27T04:32:35;102562.45;;;6.28;57.51
80620;BME280;69979;53.682;-2.690;2024-01-27T04:35:00;102564.16;;;6.53;56.45
80620;BME280;69979;53.682;-2.690;2024-01-27T04:37:26;102564.73;;;7.00;54.50
80620;BME280;69979;53.682;-2.690;2024-01-27T04:39:51;102563.34;;;6.51;55.42
80620;BME280;69979;53.682;-2.690;2024-01-27T04:42:17;102559.74;;;6.63;56.04
80620;BME280;69979;53.682;-2.690;2024-01-27T04:44:43;102559.90;;;6.63;55.30
80620;BME280;69979;53.682;-2.690;2024-01-27T04:47:08;102554.96;;;6.76;55.22
80620;BME280;69979;53.682;-2.690;2024-01-27T04:49:34;102560.89;;;7.10;54.81
80620;BME280;69979;53.682;-2.690;2024-01-27T04:51:59;102563.97;;;6.75;54.45
80620;BME280;69979;53.682;-2.690;2024-01-27T04:54:25;102561.10;;;6.85;54.30
80620;BME280;69979;53.682;-2.690;2024-01-27T04:56:51;102560.10;;;6.73;54.64
80620;BME280;69979;53.682;-2.690;2024-01-27T04:59:16;102562.91;;;6.41;55.14
80620;BME280;69979;53.682;-2.690;2024-01-27T05:01:44;102562.75;;;6.57;54.55
80620;BME280;69979;53.682;-2.690;2024-01-27T05:04:08;102559.51;;;6.29;55.37
80620;BME280;69979;53.682;-2.690;2024-01-27T05:06:34;102560.65;;;6.00;57.53
80620;BME280;69979;53.682;-2.690;2024-01-27T05:08:59;102563.90;;;5.40;59.58
80620;BME280;69979;53.682;-2.690;2024-01-27T05:11:30;102559.89;;;5.39;59.66
80620;BME280;69979;53.682;-2.690;2024-01-27T05:13:50;102555.12;;;4.43;63.54
80620;BME280;69979;53.682;-2.690;2024-01-27T05:16:17;102554.01;;;4.23;64.58
80620;BME280;69979;53.682;-2.690;2024-01-27T05:18:42;102551.77;;;4.72;63.41
80620;BME280;69979;53.682;-2.690;2024-01-27T05:21:07;102547.67;;;4.24;64.61
80620;BME280;69979;53.682;-2.690;2024-01-27T05:23:33;102543.95;;;4.09;65.77
80620;BME280;69979;53.682;-2.690;2024-01-27T05:25:59;102536.88;;;4.02;66.26
80620;BME280;69979;53.682;-2.690;2024-01-27T05:28:25;102533.10;;;4.31;65.88
80620;BME280;69979;53.682;-2.690;2024-01-27T05:30:50;102539.36;;;3.84;66.76
80620;BME280;69979;53.682;-2.690;2024-01-27T05:33:16;102533.87;;;4.51;65.39
80620;BME280;69979;53.682;-2.690;2024-01-27T05:35:42;102533.72;;;3.90;66.55
80620;BME280;69979;53.682;-2.690;2024-01-27T05:38:08;102542.19;;;3.97;67.66
80620;BME280;69979;53.682;-2.690;2024-01-27T05:40:33;102537.68;;;4.01;66.53
80620;BME280;69979;53.682;-2.690;2024-01-27T05:43:04;102540.43;;;3.90;67.26
80620;BME280;69979;53.682;-2.690;2024-01-27T05:45:24;102536.59;;;4.10;65.89
80620;BME280;69979;53.682;-2.690;2024-01-27T05:47:50;102534.17;;;4.35;66.09
80620;BME280;69979;53.682;-2.690;2024-01-27T05:50:16;102536.71;;;3.77;67.58
80620;BME280;69979;53.682;-2.690;2024-01-27T05:52:41;102537.80;;;4.12;66.70
80620;BME280;69979;53.682;-2.690;2024-01-27T05:55:08;102547.55;;;3.89;67.55
80620;BME280;69979;53.682;-2.690;2024-01-27T05:57:32;102545.63;;;4.06;66.98
80620;BME280;69979;53.682;-2.690;2024-01-27T05:59:58;102545.92;;;4.32;65.75
80620;BME280;69979;53.682;-2.690;2024-01-27T06:02:24;102548.17;;;4.42;64.24
80620;BME280;69979;53.682;-2.690;2024-01-27T06:04:50;102553.93;;;4.68;64.52
80620;BME280;69979;53.682;-2.690;2024-01-27T06:07:15;102556.22;;;5.21;61.76
80620;BME280;69979;53.682;-2.690;2024-01-27T06:09:41;102548.57;;;4.93;61.87
80620;BME280;69979;53.682;-2.690;2024-01-27T06:12:07;102547.06;;;4.95;63.45
80620;BME280;69979;53.682;-2.690;2024-01-27T06:14:33;102546.82;;;4.28;65.09
80620;BME280;69979;53.682;-2.690;2024-01-27T06:16:58;102541.97;;;4.49;65.42
80620;BME280;69979;53.682;-2.690;2024-01-27T06:19:24;102543.32;;;4.89;63.30
80620;BME280;69979;53.682;-2.690;2024-01-27T06:21:50;102538.37;;;4.85;63.67
80620;BME280;69979;53.682;-2.690;2024-01-27T06:24:15;102528.22;;;4.84;63.57
80620;BME280;69979;53.682;-2.690;2024-01-27T06:26:41;102530.91;;;5.04;62.36
80620;BME280;69979;53.682;-2.690;2024-01-27T06:29:07;102528.97;;;5.26;61.39
80620;BME280;69979;53.682;-2.690;2024-01-27T06:31:33;102532.60;;;5.39;60.90
80620;BME280;69979;53.682;-2.690;2024-01-27T06:33:58;102527.07;;;5.81;60.14
80620;BME280;69979;53.682;-2.690;2024-01-27T06:36:24;102523.19;;;6.26;58.14
80620;BME280;69979;53.682;-2.690;2024-01-27T06:38:50;102530.40;;;6.21;58.42
80620;BME280;69979;53.682;-2.690;2024-01-27T06:41:15;102522.33;;;5.76;59.05
80620;BME280;69979;53.682;-2.690;2024-01-27T06:43:41;102527.22;;;5.95;59.20
80620;BME280;69979;53.682;-2.690;2024-01-27T06:46:07;102532.44;;;6.01;58.90
80620;BME280;69979;53.682;-2.690;2024-01-27T06:48:33;102532.77;;;5.56;59.40
80620;BME280;69979;53.682;-2.690;2024-01-27T06:50:58;102528.98;;;4.92;62.76
80620;BME280;69979;53.682;-2.690;2024-01-27T06:53:24;102532.81;;;4.64;62.86
80620;BME280;69979;53.682;-2.690;2024-01-27T06:55:50;102534.22;;;4.94;62.59
80620;BME280;69979;53.682;-2.690;2024-01-27T06:58:15;102536.35;;;5.13;62.21
80620;BME280;69979;53.682;-2.690;2024-01-27T07:00:41;102544.21;;;5.17;62.45
80620;BME280;69979;53.682;-2.690;2024-01-27T07:03:07;102546.68;;;4.94;62.49
80620;BME280;69979;53.682;-2.690;2024-01-27T07:05:33;102554.87;;;5.66;60.02
80620;BME280;69979;53.682;-2.690;2024-01-27T07:07:58;102549.09;;;6.42;58.16
80620;BME280;69979;53.682;-2.690;2024-01-27T07:10:24;102549.83;;;6.44;56.81
80620;BME280;69979;53.682;-2.690;2024-01-27T07:12:50;102538.53;;;6.41;57.80
80620;BME280;69979;53.682;-2.690;2024-01-27T07:15:15;102541.16;;;5.46;60.44
80620;BME280;69979;53.682;-2.690;2024-01-27T07:17:41;102535.25;;;4.27;63.28
80620;BME280;69979;53.682;-2.690;2024-01-27T07:20:08;102537.43;;;4.20;64.28
80620;BME280;69979;53.682;-2.690;2024-01-27T07:22:32;102532.75;;;4.97;63.60
80620;BME280;69979;53.682;-2.690;2024-01-27T07:24:58;102530.98;;;4.55;64.23
80620;BME280;69979;53.682;-2.690;2024-01-27T07:27:24;102529.48;;;4.26;64.47
80620;BME280;69979;53.682;-2.690;2024-01-27T07:29:49;102523.62;;;3.92;65.32
80620;BME280;69979;53.682;-2.690;2024-01-27T07:32:15;102527.49;;;3.89;65.96
80620;BME280;69979;53.682;-2.690;2024-01-27T07:34:42;102531.68;;;4.25;65.03
80620;BME280;69979;53.682;-2.690;2024-01-27T07:37:06;102530.48;;;5.02;64.41
80620;BME280;69979;53.682;-2.690;2024-01-27T07:39:32;102525.82;;;3.76;66.57
80620;BME280;69979;53.682;-2.690;2024-01-27T07:41:58;102512.82;;;4.43;65.13
80620;BME280;69979;53.682;-2.690;2024-01-27T07:44:23;102521.93;;;3.63;67.14
80620;BME280;69979;53.682;-2.690;2024-01-27T07:46:49;102526.16;;;4.78;64.92
80620;BME280;69979;53.682;-2.690;2024-01-27T07:49:15;102521.29;;;5.12;62.70
80620;BME280;69979;53.682;-2.690;2024-01-27T07:51:41;102530.45;;;4.77;63.29
80620;BME280;69979;53.682;-2.690;2024-01-27T07:54:06;102527.70;;;4.45;63.95
80620;BME280;69979;53.682;-2.690;2024-01-27T07:56:32;102529.44;;;4.57;65.78
80620;BME280;69979;53.682;-2.690;2024-01-27T07:58:57;102533.56;;;4.23;64.98
80620;BME280;69979;53.682;-2.690;2024-01-27T08:01:23;102534.26;;;4.49;64.82
80620;BME280;69979;53.682;-2.690;2024-01-27T08:03:49;102527.55;;;4.25;65.12
80620;BME280;69979;53.682;-2.690;2024-01-27T08:06:16;102521.19;;;4.17;64.73
80620;BME280;69979;53.682;-2.690;2024-01-27T08:08:40;102528.67;;;3.46;67.51
80620;BME280;69979;53.682;-2.690;2024-01-27T08:11:05;102525.47;;;4.13;67.00
80620;BME280;69979;53.682;-2.690;2024-01-27T08:13:31;102528.98;;;3.79;68.05
80620;BME280;69979;53.682;-2.690;2024-01-27T08:15:57;102530.63;;;4.25;66.34
80620;BME280;69979;53.682;-2.690;2024-01-27T08:18:23;102526.40;;;4.71;64.63
80620;BME280;69979;53.682;-2.690;2024-01-27T08:20:48;102526.15;;;4.96;63.43
80620;BME280;69979;53.682;-2.690;2024-01-27T08:23:14;102537.91;;;4.19;65.48
80620;BME280;69979;53.682;-2.690;2024-01-27T08:25:38;102535.87;;;4.57;64.16
80620;BME280;69979;53.682;-2.690;2024-01-27T08:28:05;102540.51;;;4.65;64.67
80620;BME280;69979;53.682;-2.690;2024-01-27T08:30:30;102535.13;;;4.28;67.10
80620;BME280;69979;53.682;-2.690;2024-01-27T08:32:56;102531.22;;;4.15;67.13
80620;BME280;69979;53.682;-2.690;2024-01-27T08:35:22;102525.80;;;4.58;65.25
80620;BME280;69979;53.682;-2.690;2024-01-27T08:37:47;102527.55;;;5.10;64.06
80620;BME280;69979;53.682;-2.690;2024-01-27T08:40:13;102522.65;;;4.60;65.15
80620;BME280;69979;53.682;-2.690;2024-01-27T08:42:38;102520.14;;;4.28;65.98
80620;BME280;69979;53.682;-2.690;2024-01-27T08:45:04;102517.31;;;4.80;65.55
80620;BME280;69979;53.682;-2.690;2024-01-27T08:47:30;102526.58;;;4.35;66.42
80620;BME280;69979;53.682;-2.690;2024-01-27T08:49:55;102528.10;;;5.34;63.64
80620;BME280;69979;53.682;-2.690;2024-01-27T08:52:20;102534.65;;;4.39;66.54
80620;BME280;69979;53.682;-2.690;2024-01-27T08:54:46;102534.81;;;4.94;64.75
80620;BME280;69979;53.682;-2.690;2024-01-27T08:57:12;102528.03;;;4.27;67.16
80620;BME280;69979;53.682;-2.690;2024-01-27T08:59:37;102525.65;;;4.77;65.50
80620;BME280;69979;53.682;-2.690;2024-01-27T09:02:03;102534.08;;;3.87;69.32
80620;BME280;69979;53.682;-2.690;2024-01-27T09:04:28;102525.56;;;5.21;64.42
80620;BME280;69979;53.682;-2.690;2024-01-27T09:06:54;102528.61;;;5.08;63.32
80620;BME280;69979;53.682;-2.690;2024-01-27T09:09:19;102532.47;;;6.23;61.93
80620;BME280;69979;53.682;-2.690;2024-01-27T09:11:45;102543.17;;;4.73;64.58
80620;BME280;69979;53.682;-2.690;2024-01-27T09:14:11;102538.79;;;5.82;61.96
80620;BME280;69979;53.682;-2.690;2024-01-27T09:16:37;102537.47;;;5.34;63.70
80620;BME280;69979;53.682;-2.690;2024-01-27T09:19:02;102545.65;;;5.62;61.91
80620;BME280;69979;53.682;-2.690;2024-01-27T09:21:28;102534.07;;;4.85;63.67
80620;BME280;69979;53.682;-2.690;2024-01-27T09:23:54;102532.09;;;4.88;64.68
80620;BME280;69979;53.682;-2.690;2024-01-27T09:26:19;102535.02;;;5.07;63.47
80620;BME280;69979;53.682;-2.690;2024-01-27T09:28:45;102526.36;;;5.06;65.61
80620;BME280;69979;53.682;-2.690;2024-01-27T09:31:11;102532.43;;;4.96;63.99
80620;BME280;69979;53.682;-2.690;2024-01-27T09:33:37;102535.16;;;4.90;65.82
80620;BME280;69979;53.682;-2.690;2024-01-27T09:36:03;102529.07;;;4.96;65.14
80620;BME280;69979;53.682;-2.690;2024-01-27T09:38:28;102531.48;;;4.15;67.24
80620;BME280;69979;53.682;-2.690;2024-01-27T09:40:54;102532.27;;;4.20;68.19
80620;BME280;69979;53.682;-2.690;2024-01-27T09:43:19;102536.55;;;4.54;66.78
80620;BME280;69979;53.682;-2.690;2024-01-27T09:45:45;102535.46;;;5.09;64.62
80620;BME280;69979;53.682;-2.690;2024-01-27T09:48:12;102539.18;;;4.66;67.02
80620;BME280;69979;53.682;-2.690;2024-01-27T09:50:37;102551.21;;;3.58;70.40
80620;BME280;69979;53.682;-2.690;2024-01-27T09:53:02;102544.44;;;4.29;68.08
80620;BME280;69979;53.682;-2.690;2024-01-27T09:55:28;102544.01;;;4.61;67.45
80620;BME280;69979;53.682;-2.690;2024-01-27T09:57:53;102538.37;;;4.21;68.21
80620;BME280;69979;53.682;-2.690;2024-01-27T10:00:19;102535.87;;;4.24;69.19
80620;BME280;69979;53.682;-2.690;2024-01-27T10:02:46;102536.08;;;4.15;69.34
80620;BME280;69979;53.682;-2.690;2024-01-27T10:05:09;102533.75;;;4.66;67.57
80620;BME280;69979;53.682;-2.690;2024-01-27T10:07:35;102524.91;;;4.75;67.32
80620;BME280;69979;53.682;-2.690;2024-01-27T10:10:00;102521.58;;;5.10;66.53
80620;BME280;69979;53.682;-2.690;2024-01-27T10:12:26;102512.08;;;4.35;68.32
80620;BME280;69979;53.682;-2.690;2024-01-27T10:14:51;102508.51;;;5.03;67.11
80620;BME280;69979;53.682;-2.690;2024-01-27T10:17:21;102511.79;;;4.80;67.10
80620;BME280;69979;53.682;-2.690;2024-01-27T10:19:43;102521.99;;;5.46;64.74
80620;BME280;69979;53.682;-2.690;2024-01-27T10:22:08;102517.80;;;5.63;63.22
80620;BME280;69979;53.682;-2.690;2024-01-27T10:24:34;102520.06;;;5.67;63.81
80620;BME280;69979;53.682;-2.690;2024-01-27T10:27:01;102516.75;;;5.01;66.08
80620;BME280;69979;53.682;-2.690;2024-01-27T10:29:25;102519.71;;;5.69;64.44
80620;BME280;69979;53.682;-2.690;2024-01-27T10:31:51;102521.55;;;6.15;62.61
80620;BME280;69979;53.682;-2.690;2024-01-27T10:34:20;102522.43;;;5.59;63.83
80620;BME280;69979;53.682;-2.690;2024-01-27T10:36:42;102521.96;;;5.44;65.21
80620;BME280;69979;53.682;-2.690;2024-01-27T10:39:15;102523.01;;;5.92;62.82
80620;BME280;69979;53.682;-2.690;2024-01-27T10:41:32;102524.83;;;5.98;63.30
80620;BME280;69979;53.682;-2.690;2024-01-27T10:43:58;102518.80;;;6.56;61.96
80620;BME280;69979;53.682;-2.690;2024-01-27T10:46:23;102519.23;;;5.89;63.50
80620;BME280;69979;53.682;-2.690;2024-01-27T10:48:51;102516.09;;;5.47;65.36
80620;BME280;69979;53.682;-2.690;2024-01-27T10:51:16;102514.93;;;5.24;67.14
80620;BME280;69979;53.682;-2.690;2024-01-27T10:53:41;102513.62;;;4.88;67.91
80620;BME280;69979;53.682;-2.690;2024-01-27T10:56:06;102511.75;;;4.69;68.28
80620;BME280;69979;53.682;-2.690;2024-01-27T10:58:31;102515.94;;;4.53;70.19
80620;BME280;69979;53.682;-2.690;2024-01-27T11:00:56;102514.20;;;4.22;70.48
80620;BME280;69979;53.682;-2.690;2024-01-27T11:03:22;102515.26;;;3.54;72.41
80620;BME280;69979;53.682;-2.690;2024-01-27T11:05:47;102513.75;;;4.35;71.63
80620;BME280;69979;53.682;-2.690;2024-01-27T11:08:12;102513.25;;;4.88;70.21
80620;BME280;69979;53.682;-2.690;2024-01-27T11:10:38;102512.69;;;4.96;70.21
80620;BME280;69979;53.682;-2.690;2024-01-27T11:13:04;102515.25;;;5.09;68.81
80620;BME280;69979;53.682;-2.690;2024-01-27T11:15:29;102520.41;;;5.45;66.99
80620;BME280;69979;53.682;-2.690;2024-01-27T11:17:57;102513.05;;;4.74;68.76
80620;BME280;69979;53.682;-2.690;2024-01-27T11:20:20;102511.35;;;4.73;68.87
80620;BME280;69979;53.682;-2.690;2024-01-27T11:22:46;102521.02;;;4.68;69.35
80620;BME280;69979;53.682;-2.690;2024-01-27T11:25:17;102519.53;;;5.22;67.83
80620;BME280;69979;53.682;-2.690;2024-01-27T11:27:37;102514.55;;;5.15;67.88
80620;BME280;69979;53.682;-2.690;2024-01-27T11:30:03;102507.59;;;4.43;70.15
80620;BME280;69979;53.682;-2.690;2024-01-27T11:32:28;102498.41;;;3.98;71.51
80620;BME280;69979;53.682;-2.690;2024-01-27T11:34:54;102494.85;;;4.32;71.08
80620;BME280;69979;53.682;-2.690;2024-01-27T11:37:20;102496.82;;;4.84;69.69
80620;BME280;69979;53.682;-2.690;2024-01-27T11:39:45;102512.94;;;4.23;70.41
80620;BME280;69979;53.682;-2.690;2024-01-27T11:42:12;102500.06;;;4.25;70.66
80620;BME280;69979;53.682;-2.690;2024-01-27T11:44:37;102502.95;;;4.53;70.69
80620;BME280;69979;53.682;-2.690;2024-01-27T11:47:03;102503.97;;;3.68;71.96
80620;BME280;69979;53.682;-2.690;2024-01-27T11:49:28;102504.51;;;4.20;71.55
80620;BME280;69979;53.682;-2.690;2024-01-27T11:51:54;102495.41;;;4.14;71.71
80620;BME280;69979;53.682;-2.690;2024-01-27T11:54:19;102484.55;;;4.39;70.63
80620;BME280;69979;53.682;-2.690;2024-01-27T11:56:45;102487.85;;;4.52;70.53
80620;BME280;69979;53.682;-2.690;2024-01-27T11:59:10;102492.26;;;4.51;70.43
80620;BME280;69979;53.682;-2.690;2024-01-27T12:01:37;102497.15;;;4.77;69.10
80620;BME280;69979;53.682;-2.690;2024-01-27T12:04:03;102499.04;;;4.85;68.84
80620;BME280;69979;53.682;-2.690;2024-01-27T12:06:28;102497.56;;;4.52;70.27
80620;BME280;69979;53.682;-2.690;2024-01-27T12:08:54;102494.78;;;4.19;70.05
80620;BME280;69979;53.682;-2.690;2024-01-27T12:11:19;102478.99;;;4.68;69.92
80620;BME280;69979;53.682;-2.690;2024-01-27T12:13:45;102483.13;;;5.31;66.87
80620;BME280;69979;53.682;-2.690;2024-01-27T12:16:11;102485.28;;;4.71;68.77
80620;BME280;69979;53.682;-2.690;2024-01-27T12:18:36;102484.87;;;4.64;68.53
80620;BME280;69979;53.682;-2.690;2024-01-27T12:21:02;102484.09;;;4.66;69.42
80620;BME280;69979;53.682;-2.690;2024-01-27T12:23:27;102485.26;;;4.81;68.87
80620;BME280;69979;53.682;-2.690;2024-01-27T12:25:54;102475.67;;;4.95;68.12
80620;BME280;69979;53.682;-2.690;2024-01-27T12:28:19;102475.14;;;5.09;67.14
80620;BME280;69979;53.682;-2.690;2024-01-27T12:30:44;102478.08;;;4.74;68.43
80620;BME280;69979;53.682;-2.690;2024-01-27T12:33:12;102476.58;;;4.85;68.44
80620;BME280;69979;53.682;-2.690;2024-01-27T12:35:36;102473.95;;;5.13;68.24
80620;BME280;69979;53.682;-2.690;2024-01-27T12:38:01;102469.45;;;4.87;68.17
80620;BME280;69979;53.682;-2.690;2024-01-27T12:40:27;102470.77;;;5.02;67.98